Time;durP1;ratioP1;P1;durP2;ratioP2;P2;SDS_P1;SDS_P2;PMS_P1;PMS_P2;Temp;Humidity;BMP_temperature;BMP_pressure;BME280_temperature;BME280_humidity;BME280_pressure;Samples;Min_cycle;Max_cycle;Signal;HPM_P1;HPM_P2
2022/08/12 03:00:29;;;;;;;0.70;0.70;;;21.20;56.60;;;;;;6136405;22;20372;31
2022/08/12 03:03:04;;;;;;;0.80;0.60;;;21.20;56.40;;;;;;4938298;29;20475;-74
2022/08/12 03:05:34;;;;;;;0.70;0.60;;;21.20;56.80;;;;;;4939132;29;20974;-74
2022/08/12 03:08:04;;;;;;;0.80;0.60;;;21.20;56.60;;;;;;4939278;29;20479;-74
2022/08/12 03:10:40;;;;;;;0.70;0.60;;;21.20;56.80;;;;;;4939140;29;20570;-73
2022/08/12 03:13:07;;;;;;;0.90;0.70;;;21.20;56.80;;;;;;4938971;29;20451;-74
2022/08/12 03:15:35;;;;;;;0.80;0.60;;;21.20;56.80;;;;;;4980810;23;20626;-72
2022/08/12 03:18:08;;;;;;;0.70;0.50;;;21.10;56.90;;;;;;5035412;28;20839;-72
2022/08/12 03:20:39;;;;;;;0.70;0.60;;;21.10;57.20;;;;;;5035268;28;20915;-71
2022/08/12 03:23:08;;;;;;;1.00;0.63;;;21.10;57.20;;;;;;5036092;28;20547;-72
2022/08/12 03:25:38;;;;;;;0.80;0.80;;;21.10;57.20;;;;;;5035095;28;20467;-72
2022/08/12 03:28:09;;;;;;;0.77;0.67;;;21.00;57.20;;;;;;5035548;28;20438;-73
2022/08/12 03:30:38;;;;;;;0.70;0.60;;;21.00;57.40;;;;;;5035280;28;20896;-72
2022/08/12 03:33:08;;;;;;;0.70;0.60;;;21.00;57.50;;;;;;5035384;28;20452;-72
2022/08/12 03:35:36;;;;;;;0.70;0.70;;;21.00;57.40;;;;;;5034940;28;20501;-72
2022/08/12 03:38:05;;;;;;;0.70;0.70;;;21.00;57.40;;;;;;5035323;28;20550;-73
2022/08/12 04:02:43;;;;;;;1.00;0.90;;;20.50;59.00;;;;;;5035158;28;20492;-72
2022/08/12 04:05:19;;;;;;;0.80;0.67;;;20.50;59.00;;;;;;5034358;28;20946;-72
2022/08/12 04:07:46;;;;;;;0.80;0.63;;;20.50;59.20;;;;;;5034525;28;20906;-72
2022/08/12 04:10:13;;;;;;;0.70;0.60;;;20.40;59.40;;;;;;5034626;28;20486;-72
2022/08/12 04:15:27;;;;;;;0.70;0.60;;;20.40;59.30;;;;;;5034500;28;20426;-73
2022/08/12 04:17:54;;;;;;;0.70;0.60;;;20.30;59.60;;;;;;5034504;28;20446;-74
2022/08/12 04:20:23;;;;;;;0.90;0.70;;;20.30;59.80;;;;;;5034558;28;20440;-74
2022/08/12 04:22:53;;;;;;;0.70;0.57;;;20.30;59.70;;;;;;5034751;28;20454;-74
2022/08/12 04:25:20;;;;;;;0.80;0.70;;;20.30;59.80;;;;;;5034524;28;20451;-74
2022/08/12 04:27:49;;;;;;;0.70;0.67;;;20.30;59.70;;;;;;5034336;28;20443;-71
2022/08/12 04:30:16;;;;;;;0.70;0.60;;;20.20;59.90;;;;;;5034321;28;20549;-72
2022/08/12 04:32:43;;;;;;;0.90;0.70;;;20.20;60.00;;;;;;5034260;28;20517;-71
2022/08/12 04:35:10;;;;;;;0.70;0.60;;;20.20;60.20;;;;;;5034136;28;20497;-72
2022/08/12 04:37:38;;;;;;;0.70;0.60;;;20.20;60.50;;;;;;5034220;28;20498;-72
2022/08/12 04:40:08;;;;;;;1.33;0.70;;;20.30;60.60;;;;;;5034228;28;20459;-72
2022/08/12 04:42:34;;;;;;;1.20;0.70;;;20.30;60.50;;;;;;5034227;28;20447;-72
2022/08/12 04:45:01;;;;;;;0.70;0.60;;;20.30;60.60;;;;;;5034024;28;20440;-72
2022/08/12 04:47:28;;;;;;;0.80;0.60;;;20.30;60.50;;;;;;5033942;28;20526;-73
2022/08/12 04:49:55;;;;;;;0.80;0.80;;;20.30;60.50;;;;;;5033904;28;20526;-72
2022/08/12 04:52:22;;;;;;;1.10;0.67;;;20.40;60.60;;;;;;5033609;28;20443;-72
2022/08/12 04:54:51;;;;;;;0.70;0.70;;;20.50;60.40;;;;;;5034343;28;20486;-72
2022/08/12 04:57:17;;;;;;;0.70;0.60;;;20.60;60.50;;;;;;5033507;28;20467;-72
2022/08/12 04:59:44;;;;;;;0.70;0.70;;;20.60;60.30;;;;;;5033573;28;20452;-72
2022/08/12 05:02:10;;;;;;;1.00;0.90;;;20.70;60.20;;;;;;5033634;28;20480;-72
2022/08/12 05:04:37;;;;;;;0.73;0.60;;;20.80;60.50;;;;;;5033501;28;20474;-72
2022/08/12 05:07:07;;;;;;;1.17;0.67;;;21.00;59.90;;;;;;5033435;28;20467;-72
2022/08/12 05:09:34;;;;;;;0.70;0.70;;;21.10;60.20;;;;;;5033284;28;20440;-71
2022/08/12 05:12:02;;;;;;;0.70;0.60;;;21.10;60.40;;;;;;5032997;28;20530;-72
2022/08/12 05:14:29;;;;;;;0.80;0.60;;;21.20;59.90;;;;;;5033279;28;20474;-72
2022/08/12 05:16:56;;;;;;;0.80;0.70;;;21.40;59.30;;;;;;5032929;28;20483;-72
2022/08/12 05:19:23;;;;;;;0.73;0.73;;;21.50;59.90;;;;;;5032919;28;20824;-74
2022/08/12 05:21:50;;;;;;;0.90;0.70;;;21.60;58.90;;;;;;5032855;28;20965;-75
2022/08/12 05:24:17;;;;;;;1.17;0.70;;;21.70;58.90;;;;;;5033240;28;20812;-75
2022/08/12 05:26:43;;;;;;;1.20;0.70;;;21.90;58.10;;;;;;5033090;28;20510;-74
2022/08/12 05:29:15;;;;;;;0.80;0.70;;;21.90;56.40;;;;;;5032851;28;20447;-75
2022/08/12 05:31:42;;;;;;;0.70;0.70;;;21.90;57.10;;;;;;5032712;28;20882;-74
2022/08/12 05:34:09;;;;;;;1.00;0.70;;;21.90;56.60;;;;;;5033168;28;21033;-75
2022/08/12 05:36:35;;;;;;;0.80;0.70;;;22.00;56.10;;;;;;5033499;28;20559;-74
2022/08/12 05:39:02;;;;;;;0.70;0.70;;;22.00;55.70;;;;;;5033499;28;20455;-74
2022/08/12 05:41:30;;;;;;;0.90;0.70;;;21.90;56.00;;;;;;5033699;28;20497;-75
2022/08/12 05:43:59;;;;;;;1.73;0.70;;;21.90;56.30;;;;;;5033723;28;20447;-75
2022/08/12 05:46:28;;;;;;;0.93;0.70;;;21.80;55.50;;;;;;5033357;28;20468;-75
2022/08/12 05:48:57;;;;;;;0.70;0.60;;;21.50;55.90;;;;;;5033403;28;20447;-75
2022/08/12 05:51:25;;;;;;;0.90;0.70;;;21.60;56.60;;;;;;5033264;28;20485;-75
2022/08/12 05:53:52;;;;;;;0.83;0.80;;;21.80;55.90;;;;;;5033258;28;20444;-74
2022/08/12 05:56:22;;;;;;;0.80;0.70;;;21.70;56.30;;;;;;5032796;28;20898;-75
2022/08/12 05:58:50;;;;;;;0.70;0.60;;;21.60;55.90;;;;;;5033291;28;20447;-75
2022/08/12 06:01:17;;;;;;;0.70;0.70;;;21.70;56.60;;;;;;5033285;28;20531;-75
2022/08/12 06:03:45;;;;;;;0.70;0.60;;;22.00;55.80;;;;;;5033136;28;20444;-74
2022/08/12 06:06:15;;;;;;;0.80;0.70;;;22.10;55.00;;;;;;5032978;28;20472;-75
2022/08/12 06:08:45;;;;;;;0.70;0.60;;;22.10;55.10;;;;;;5033062;28;20865;-74
2022/08/12 06:11:11;;;;;;;0.97;0.80;;;22.10;55.30;;;;;;5032492;28;20479;-74
2022/08/12 06:13:40;;;;;;;0.90;0.60;;;22.20;55.30;;;;;;5032575;28;20447;-74
2022/08/12 06:16:08;;;;;;;1.07;0.60;;;22.40;54.50;;;;;;5032764;28;20580;-74
2022/08/12 06:18:36;;;;;;;1.00;0.70;;;22.70;54.70;;;;;;5032872;28;20462;-72
2022/08/12 06:21:06;;;;;;;0.80;0.70;;;22.70;54.10;;;;;;5032841;28;20858;-72
2022/08/12 06:23:33;;;;;;;0.80;0.70;;;22.80;53.50;;;;;;5032488;28;20988;-72
2022/08/12 06:26:00;;;;;;;0.80;0.60;;;23.00;53.20;;;;;;5032306;28;20854;-71
2022/08/12 06:28:26;;;;;;;0.87;0.70;;;22.90;52.80;;;;;;5032666;28;20454;-71
2022/08/12 06:30:54;;;;;;;0.90;0.70;;;23.00;53.40;;;;;;5032696;28;20486;-71
2022/08/12 06:33:21;;;;;;;0.83;0.60;;;23.20;53.30;;;;;;5032508;28;20490;-71
2022/08/12 06:35:48;;;;;;;1.47;0.70;;;23.40;52.50;;;;;;5032596;28;20468;-71
2022/08/12 06:38:18;;;;;;;0.70;0.60;;;23.40;52.20;;;;;;5032654;28;20451;-71
2022/08/12 06:43:32;;;;;;;0.80;0.60;;;23.50;52.10;;;;;;5032966;28;20402;-70
2022/08/12 06:45:59;;;;;;;0.70;0.60;;;23.50;52.90;;;;;;5032609;28;20467;-70
2022/08/12 06:48:26;;;;;;;0.77;0.70;;;23.70;52.90;;;;;;5032256;28;20938;-71
2022/08/12 06:50:53;;;;;;;0.70;0.60;;;24.00;52.50;;;;;;5032432;28;20487;-71
2022/08/12 06:53:22;;;;;;;0.70;0.60;;;23.90;51.50;;;;;;5032171;28;20463;-71
2022/08/12 06:55:49;;;;;;;0.80;0.60;;;24.00;52.50;;;;;;5032459;28;20475;-72
2022/08/12 06:58:16;;;;;;;0.70;0.60;;;24.20;51.00;;;;;;5032650;28;20535;-71
2022/08/12 07:00:45;;;;;;;0.70;0.60;;;24.00;51.10;;;;;;5032495;28;20454;-72
2022/08/12 07:03:16;;;;;;;0.80;0.60;;;24.00;51.10;;;;;;5032533;28;20953;-72
2022/08/12 07:05:43;;;;;;;1.07;0.70;;;24.30;50.30;;;;;;5032523;28;20471;-71
2022/08/12 07:08:10;;;;;;;0.70;0.60;;;24.50;49.90;;;;;;5032128;28;20821;-72
2022/08/12 07:10:43;;;;;;;0.70;0.60;;;24.60;50.00;;;;;;5032274;28;20443;-71
2022/08/12 07:13:10;;;;;;;0.80;0.50;;;25.00;50.00;;;;;;5032068;28;20984;-72
2022/08/12 07:15:38;;;;;;;0.70;0.60;;;25.20;49.60;;;;;;5032571;28;20475;-72
2022/08/12 07:18:12;;;;;;;0.93;0.60;;;25.20;48.30;;;;;;5032864;28;20451;-73
2022/08/12 07:20:41;;;;;;;0.70;0.60;;;25.10;48.10;;;;;;5032424;28;20439;-72
2022/08/12 07:23:08;;;;;;;0.70;0.60;;;25.20;47.70;;;;;;5035258;28;20830;-72
2022/08/12 07:25:36;;;;;;;1.37;0.70;;;25.20;47.70;;;;;;5036464;28;20582;-75
2022/08/12 07:28:06;;;;;;;0.70;0.60;;;25.20;47.60;;;;;;5035963;28;20444;-74
2022/08/12 07:30:35;;;;;;;0.97;0.60;;;25.00;47.60;;;;;;5035514;28;20440;-73
2022/08/12 07:33:03;;;;;;;0.70;0.60;;;24.90;47.40;;;;;;5035812;28;20588;-72
2022/08/12 07:35:32;;;;;;;0.67;0.50;;;25.10;47.90;;;;;;5035712;28;20557;-72
2022/08/12 07:37:59;;;;;;;0.77;0.77;;;25.40;48.10;;;;;;5035694;28;20518;-74
2022/08/12 07:40:28;;;;;;;0.70;0.50;;;25.40;46.90;;;;;;5035601;28;20498;-73
2022/08/12 07:42:55;;;;;;;0.70;0.60;;;25.30;47.00;;;;;;5036174;28;20505;-73
2022/08/12 07:45:24;;;;;;;2.33;0.60;;;25.10;47.10;;;;;;5036494;28;20447;-73
2022/08/12 07:47:51;;;;;;;0.80;0.53;;;25.00;47.70;;;;;;5035469;28;20503;-74
2022/08/12 07:50:20;;;;;;;0.70;0.60;;;24.70;47.60;;;;;;5035063;28;20869;-73
2022/08/12 07:52:47;;;;;;;0.70;0.60;;;24.50;48.90;;;;;;5035325;28;20483;-72
2022/08/12 07:55:15;;;;;;;0.70;0.60;;;24.80;48.60;;;;;;5035279;28;20454;-72
2022/08/12 07:57:56;;;;;;;0.70;0.53;;;25.00;48.40;;;;;;5035038;28;21021;-72
2022/08/12 08:00:26;;;;;;;0.90;0.60;;;25.40;47.60;;;;;;5035484;28;20442;-72
2022/08/12 08:02:53;;;;;;;0.70;0.60;;;25.60;47.40;;;;;;5034857;28;20945;-72
2022/08/12 08:05:22;;;;;;;0.70;0.60;;;25.30;47.00;;;;;;5034808;28;20994;-72
2022/08/12 08:07:48;;;;;;;0.70;0.60;;;25.50;47.40;;;;;;5035233;28;20459;-72
2022/08/12 08:10:16;;;;;;;0.70;0.50;;;25.80;47.10;;;;;;5035103;28;20447;-73
2022/08/12 08:12:56;;;;;;;0.70;0.60;;;26.10;46.10;;;;;;5034887;28;20519;-72
2022/08/12 08:15:33;;;;;;;0.70;0.57;;;26.00;46.60;;;;;;5034791;28;20439;-73
2022/08/12 08:18:03;;;;;;;0.70;0.60;;;26.40;45.70;;;;;;5034911;28;20432;-72
2022/08/12 08:20:32;;;;;;;0.80;0.70;;;26.30;45.80;;;;;;5034866;28;20522;-72
2022/08/12 08:23:04;;;;;;;0.70;0.60;;;26.10;45.10;;;;;;5034796;28;20451;-72
2022/08/12 08:25:31;;;;;;;1.10;0.63;;;26.10;46.50;;;;;;5034253;28;20464;-71
2022/08/12 08:28:00;;;;;;;1.23;0.67;;;26.00;45.40;;;;;;5034942;28;20454;-72
2022/08/12 08:30:30;;;;;;;0.80;0.80;;;25.90;46.00;;;;;;5034747;28;20452;-72
2022/08/12 08:32:57;;;;;;;0.70;0.70;;;26.00;46.60;;;;;;5035043;28;20467;-72
2022/08/12 08:35:24;;;;;;;0.70;0.60;;;26.10;44.70;;;;;;5034554;28;20832;-73
2022/08/12 08:37:51;;;;;;;1.10;0.63;;;26.40;44.50;;;;;;5034178;28;21004;-73
2022/08/12 08:43:03;;;;;;;0.90;0.70;;;26.30;44.30;;;;;;5034518;28;20551;-74
2022/08/12 08:45:31;;;;;;;0.80;0.60;;;26.40;43.70;;;;;;5034154;28;20978;-73
2022/08/12 08:47:59;;;;;;;0.70;0.50;;;26.40;44.30;;;;;;5034382;28;20447;-72
2022/08/12 08:50:26;;;;;;;0.70;0.50;;;26.00;44.30;;;;;;5034525;28;20447;-73
2022/08/12 08:52:52;;;;;;;0.70;0.60;;;26.20;43.80;;;;;;5034176;28;20483;-72
2022/08/12 08:55:19;;;;;;;0.70;0.70;;;25.90;44.30;;;;;;5034129;28;20493;-72
2022/08/12 08:57:49;;;;;;;1.00;0.90;;;26.10;43.70;;;;;;5034244;28;20455;-73
2022/08/12 09:00:17;;;;;;;0.80;0.60;;;26.40;43.30;;;;;;5034236;28;20451;-72
2022/08/12 09:02:46;;;;;;;0.70;0.60;;;26.60;43.40;;;;;;5035087;28;20451;-73
2022/08/12 09:05:13;;;;;;;0.70;0.67;;;26.60;43.70;;;;;;5033816;28;20455;-73
2022/08/12 09:07:45;;;;;;;0.70;0.57;;;26.40;43.50;;;;;;5033649;28;20452;-73
2022/08/12 09:10:15;;;;;;;0.70;0.50;;;26.60;44.20;;;;;;5033921;28;20451;-71
2022/08/12 09:18:01;;;;;;;0.80;0.70;;;26.50;43.70;;;;;;5057426;22;20483;-76
2022/08/12 09:20:32;;;;;;;0.80;0.60;;;26.80;43.70;;;;;;5034093;28;20447;-76
2022/08/12 09:23:00;;;;;;;0.70;0.60;;;27.10;43.70;;;;;;5034147;28;20439;-75
2022/08/12 09:25:30;;;;;;;0.80;0.60;;;27.20;42.50;;;;;;5033997;28;20439;-75
2022/08/12 09:27:57;;;;;;;0.70;0.60;;;27.30;42.80;;;;;;5033867;28;20550;-76
2022/08/12 09:30:24;;;;;;;1.00;0.60;;;27.30;42.40;;;;;;5034387;28;20849;-75
2022/08/12 09:32:52;;;;;;;0.90;0.60;;;27.20;42.20;;;;;;5033756;28;20526;-75
2022/08/12 09:35:22;;;;;;;0.70;0.60;;;27.30;43.20;;;;;;5033769;28;20483;-76
2022/08/12 09:37:50;;;;;;;0.77;0.70;;;27.50;42.00;;;;;;5033686;28;20475;-75
2022/08/12 09:40:18;;;;;;;0.80;0.60;;;27.10;42.50;;;;;;5034607;28;20454;-76
2022/08/12 09:45:32;;;;;;;0.80;0.70;;;27.30;42.60;;;;;;5033487;28;20408;-75
2022/08/12 09:48:02;;;;;;;0.80;0.60;;;27.50;42.80;;;;;;5033554;28;20554;-76
2022/08/12 09:50:30;;;;;;;0.70;0.50;;;27.70;42.50;;;;;;5034194;28;20546;-75
2022/08/12 09:53:07;;;;;;;0.70;0.60;;;27.50;42.20;;;;;;5033593;28;20486;-75
2022/08/12 09:55:34;;;;;;;0.90;0.60;;;27.20;43.10;;;;;;5033526;28;20447;-75
2022/08/12 09:58:01;;;;;;;0.70;0.60;;;26.90;43.10;;;;;;5033483;28;20478;-75
2022/08/12 10:00:28;;;;;;;0.70;0.60;;;27.00;44.10;;;;;;5033660;28;20443;-75
2022/08/12 10:03:00;;;;;;;0.80;0.53;;;27.10;43.10;;;;;;5033504;28;20494;-75
2022/08/12 10:05:31;;;;;;;0.70;0.60;;;27.20;42.40;;;;;;5033481;28;20497;-76
2022/08/12 10:08:00;;;;;;;0.70;0.70;;;27.10;41.70;;;;;;5033319;28;20567;-75
2022/08/12 10:10:27;;;;;;;0.70;0.60;;;27.10;43.20;;;;;;5033516;28;20538;-75
2022/08/12 10:15:43;;;;;;;0.70;0.60;;;27.40;42.60;;;;;;5033082;28;20490;-76
2022/08/12 10:18:10;;;;;;;0.70;0.50;;;27.80;42.00;;;;;;5033322;28;20436;-75
2022/08/12 10:20:37;;;;;;;0.70;0.60;;;27.80;43.10;;;;;;5033483;28;20481;-75
2022/08/12 10:23:05;;;;;;;0.70;0.60;;;28.00;41.80;;;;;;5033217;28;20451;-74
2022/08/12 10:31:01;;;;;;;0.80;0.60;;;27.10;42.50;;;;;;5033838;28;20482;-74
2022/08/12 10:33:29;;;;;;;0.80;0.60;;;27.20;42.50;;;;;;5033801;28;20487;-74
2022/08/12 10:35:56;;;;;;;0.70;0.67;;;27.40;43.60;;;;;;5033582;28;20553;-74
2022/08/12 10:38:24;;;;;;;0.80;0.70;;;27.50;43.00;;;;;;5033122;28;20451;-73
2022/08/12 10:43:42;;;;;;;0.80;0.60;;;28.10;41.50;;;;;;5033679;28;20836;-75
2022/08/12 10:46:09;;;;;;;0.80;0.60;;;28.40;40.70;;;;;;5034156;28;20518;-75
2022/08/12 10:48:37;;;;;;;0.90;0.60;;;28.70;40.90;;;;;;5036445;28;20455;-75
2022/08/12 10:51:04;;;;;;;0.70;0.60;;;28.80;39.40;;;;;;5035998;28;20501;-75
2022/08/12 10:53:33;;;;;;;0.70;0.60;;;29.00;40.10;;;;;;5035486;28;20486;-74
2022/08/12 10:56:00;;;;;;;0.70;0.60;;;29.30;39.20;;;;;;5037239;28;20467;-75
2022/08/12 10:58:27;;;;;;;0.80;0.60;;;29.50;39.90;;;;;;5039486;28;20451;-75
2022/08/12 11:00:54;;;;;;;0.80;0.60;;;29.70;39.50;;;;;;5038362;28;20487;-73
2022/08/12 11:03:21;;;;;;;1.67;0.70;;;29.90;38.60;;;;;;5038469;28;20530;-74
2022/08/12 11:05:48;;;;;;;0.70;0.60;;;29.90;39.10;;;;;;5039203;28;20458;-74
2022/08/12 11:08:16;;;;;;;1.00;0.70;;;30.00;38.00;;;;;;5038557;28;20459;-75
2022/08/12 11:10:44;;;;;;;0.70;0.60;;;29.70;38.60;;;;;;5038528;28;20451;-75
2022/08/12 11:13:11;;;;;;;0.80;0.60;;;29.50;38.90;;;;;;5039741;28;20525;-74
2022/08/12 11:15:38;;;;;;;0.70;0.60;;;29.50;38.80;;;;;;5038629;28;20469;-75
2022/08/12 11:18:04;;;;;;;0.73;0.60;;;29.70;38.00;;;;;;5038810;28;20813;-75
2022/08/12 11:20:31;;;;;;;0.70;0.53;;;29.80;39.00;;;;;;5038448;28;20493;-74
2022/08/12 11:22:59;;;;;;;0.73;0.63;;;30.00;38.50;;;;;;5037374;28;20963;-72
2022/08/12 11:25:25;;;;;;;0.80;0.60;;;30.20;37.50;;;;;;5038283;28;20442;-75
2022/08/12 11:27:53;;;;;;;0.70;0.50;;;30.20;37.80;;;;;;5039664;28;20455;-75
2022/08/12 11:30:20;;;;;;;0.70;0.60;;;30.10;38.00;;;;;;5041081;28;20447;-74
2022/08/12 11:32:47;;;;;;;0.80;0.70;;;29.90;37.70;;;;;;5041493;28;21002;-76
2022/08/12 11:35:14;;;;;;;0.70;0.60;;;29.70;37.70;;;;;;5041104;28;20443;-75
2022/08/12 11:37:41;;;;;;;1.27;0.70;;;29.50;38.10;;;;;;5041393;28;20474;-74
2022/08/12 11:40:08;;;;;;;0.70;0.60;;;29.60;37.60;;;;;;5042730;28;20467;-74
2022/08/12 11:42:35;;;;;;;0.70;0.60;;;29.80;37.70;;;;;;5043150;28;20452;-74
2022/08/12 11:45:04;;;;;;;0.70;0.60;;;29.90;37.30;;;;;;5040970;28;20444;-74
2022/08/12 11:47:30;;;;;;;0.70;0.60;;;29.90;37.90;;;;;;5040299;28;20468;-74
2022/08/12 11:49:57;;;;;;;0.80;0.60;;;29.80;37.10;;;;;;5040798;28;20470;-76
2022/08/12 11:52:24;;;;;;;0.80;0.60;;;30.10;37.20;;;;;;5037809;28;20489;-75
2022/08/12 11:54:51;;;;;;;0.90;0.70;;;30.20;36.70;;;;;;5038887;28;20462;-75
2022/08/12 11:57:17;;;;;;;0.70;0.60;;;30.30;37.40;;;;;;5036786;28;20476;-76
2022/08/12 11:59:44;;;;;;;0.70;0.57;;;30.60;37.30;;;;;;5037261;28;20501;-75
2022/08/12 12:02:12;;;;;;;0.60;0.50;;;29.80;36.50;;;;;;5038333;28;20447;-73
2022/08/12 12:04:39;;;;;;;0.70;0.60;;;29.50;37.40;;;;;;5035412;28;20629;-74
2022/08/12 12:07:05;;;;;;;0.70;0.50;;;29.40;37.70;;;;;;5035014;28;20468;-74
2022/08/12 12:09:32;;;;;;;1.23;0.60;;;29.30;37.90;;;;;;5035442;28;20444;-74
2022/08/12 12:11:59;;;;;;;0.73;0.60;;;29.40;37.70;;;;;;5036199;28;20451;-75
2022/08/12 12:14:26;;;;;;;0.70;0.60;;;29.50;36.90;;;;;;5035509;28;20578;-74
2022/08/12 12:16:53;;;;;;;0.67;0.50;;;29.60;37.10;;;;;;5035208;28;20491;-74
2022/08/12 12:19:21;;;;;;;0.90;0.60;;;29.50;36.80;;;;;;5035341;28;20795;-73
2022/08/12 12:21:47;;;;;;;0.70;0.60;;;29.30;37.60;;;;;;5035805;28;20860;-73
2022/08/12 12:24:14;;;;;;;0.90;0.60;;;29.60;37.40;;;;;;5035613;28;20444;-73
2022/08/12 12:26:41;;;;;;;0.70;0.57;;;29.80;37.10;;;;;;5035364;28;20471;-73
2022/08/12 12:29:07;;;;;;;0.70;0.57;;;29.70;37.80;;;;;;5035347;28;20448;-74
2022/08/12 12:31:34;;;;;;;0.70;0.60;;;29.80;37.20;;;;;;5034989;28;20494;-75
2022/08/12 12:34:01;;;;;;;0.70;0.60;;;29.90;37.80;;;;;;5035223;28;20509;-74
2022/08/12 12:36:29;;;;;;;0.70;0.60;;;29.60;37.20;;;;;;5035128;28;20467;-72
2022/08/12 12:38:55;;;;;;;0.70;0.60;;;29.70;37.20;;;;;;5035288;28;20497;-72
2022/08/12 12:41:22;;;;;;;0.63;0.50;;;29.80;37.80;;;;;;5034671;28;20447;-71
2022/08/12 12:43:49;;;;;;;0.70;0.60;;;29.70;37.00;;;;;;5035533;28;20451;-72
2022/08/12 12:46:17;;;;;;;0.80;0.60;;;29.60;37.90;;;;;;5036169;28;20471;-73
2022/08/12 12:48:44;;;;;;;0.70;0.60;;;29.20;37.80;;;;;;5035253;28;20506;-72
2022/08/12 12:51:16;;;;;;;0.70;0.60;;;28.80;38.70;;;;;;5034754;28;20497;-73
2022/08/12 12:53:48;;;;;;;0.70;0.60;;;28.80;38.30;;;;;;5034494;28;20537;-73
2022/08/12 12:56:16;;;;;;;0.90;0.63;;;28.70;38.40;;;;;;5034567;28;20471;-73
2022/08/12 12:58:43;;;;;;;0.70;0.60;;;28.60;39.20;;;;;;5034005;28;20947;-72
2022/08/12 13:01:12;;;;;;;0.90;0.60;;;28.60;39.00;;;;;;5034234;28;20502;-74
2022/08/12 13:03:39;;;;;;;0.80;0.67;;;28.60;39.20;;;;;;5034231;28;20451;-73
2022/08/12 13:06:07;;;;;;;0.80;0.60;;;28.70;39.10;;;;;;5034385;28;20467;-72
2022/08/12 13:08:34;;;;;;;0.70;0.50;;;28.70;38.60;;;;;;5034223;28;20452;-72
2022/08/12 13:11:04;;;;;;;0.80;0.60;;;28.60;38.70;;;;;;5033820;28;20866;-72
2022/08/12 13:13:33;;;;;;;0.70;0.60;;;28.50;39.20;;;;;;5033988;28;20525;-72
2022/08/12 13:16:01;;;;;;;0.70;0.60;;;28.70;38.90;;;;;;5033526;28;20487;-73
2022/08/12 13:18:35;;;;;;;0.70;0.60;;;28.70;39.00;;;;;;5034726;28;20512;-73
2022/08/12 13:21:02;;;;;;;0.90;0.60;;;28.40;39.40;;;;;;5033959;28;20428;-75
2022/08/12 13:23:28;;;;;;;0.70;0.50;;;28.30;39.30;;;;;;5034667;28;20439;-74
2022/08/12 13:25:56;;;;;;;0.70;0.60;;;28.80;39.80;;;;;;5034087;28;20451;-73
2022/08/12 13:28:27;;;;;;;0.87;0.83;;;28.90;39.20;;;;;;5034524;28;20509;-75
2022/08/12 13:30:56;;;;;;;0.70;0.60;;;29.00;38.60;;;;;;5034586;28;20448;-73
2022/08/12 13:33:24;;;;;;;0.70;0.50;;;29.30;37.60;;;;;;5034971;28;20487;-74
2022/08/12 13:35:53;;;;;;;0.80;0.63;;;29.60;37.50;;;;;;5038138;28;20452;-76
2022/08/12 13:38:20;;;;;;;0.67;0.50;;;29.60;37.30;;;;;;5037559;28;20451;-74
2022/08/12 13:40:47;;;;;;;0.70;0.53;;;29.20;37.80;;;;;;5036570;28;20977;-77
2022/08/12 13:43:16;;;;;;;0.70;0.50;;;29.10;37.50;;;;;;5033933;28;20896;-77
2022/08/12 13:45:44;;;;;;;0.70;0.60;;;28.90;38.00;;;;;;5034160;28;20451;-77
2022/08/12 13:48:11;;;;;;;0.70;0.50;;;28.50;38.80;;;;;;5033959;28;20451;-76
2022/08/12 13:50:39;;;;;;;0.70;0.60;;;28.60;39.20;;;;;;5033683;28;20447;-76
2022/08/12 13:53:08;;;;;;;0.87;0.60;;;28.80;38.90;;;;;;5033422;28;20541;-75
2022/08/12 13:55:36;;;;;;;0.73;0.60;;;29.10;38.50;;;;;;5033537;28;20501;-72
2022/08/12 13:58:04;;;;;;;0.70;0.50;;;29.40;37.60;;;;;;5034010;28;20448;-75
2022/08/12 14:00:32;;;;;;;1.23;0.53;;;29.50;38.60;;;;;;5033457;28;20456;-74
2022/08/12 14:03:00;;;;;;;0.93;0.63;;;29.80;38.20;;;;;;5033554;28;20444;-76
2022/08/12 14:05:27;;;;;;;0.70;0.53;;;29.90;37.70;;;;;;5033372;28;20874;-76
2022/08/12 14:07:56;;;;;;;0.70;0.60;;;30.00;37.00;;;;;;5033282;28;20558;-74
2022/08/12 14:10:37;;;;;;;0.70;0.60;;;30.40;36.30;;;;;;5033279;28;20455;-77
2022/08/12 14:13:10;;;;;;;0.70;0.50;;;30.70;36.90;;;;;;5033350;28;20439;-75
2022/08/12 14:15:39;;;;;;;1.30;0.60;;;30.70;35.80;;;;;;5032940;28;21038;-75
2022/08/12 14:18:13;;;;;;;0.70;0.60;;;30.70;35.30;;;;;;5033766;28;20435;-77
2022/08/12 14:20:41;;;;;;;0.80;0.70;;;30.00;35.80;;;;;;5034492;28;20431;-77
2022/08/12 14:23:08;;;;;;;0.70;0.60;;;29.90;36.50;;;;;;5033190;28;20447;-74
2022/08/12 14:25:35;;;;;;;0.70;0.60;;;30.00;36.40;;;;;;5033117;28;20525;-74
2022/08/12 14:28:10;;;;;;;0.70;0.60;;;29.70;36.50;;;;;;5033158;28;20439;-75
2022/08/12 14:30:43;;;;;;;0.70;0.60;;;29.70;37.10;;;;;;5033777;28;20465;-75
2022/08/12 14:33:11;;;;;;;0.80;0.60;;;29.70;36.90;;;;;;5036864;28;20970;-75
2022/08/12 14:35:38;;;;;;;0.70;0.60;;;29.80;36.90;;;;;;5037753;28;20447;-75
2022/08/12 14:38:14;;;;;;;0.80;0.60;;;29.90;37.20;;;;;;5037122;28;20494;-75
2022/08/12 14:40:42;;;;;;;0.70;0.60;;;30.10;36.50;;;;;;5037012;28;20441;-75
2022/08/12 14:43:08;;;;;;;0.80;0.60;;;30.30;35.80;;;;;;5036934;28;20447;-76
2022/08/12 14:45:36;;;;;;;1.00;0.70;;;30.50;35.40;;;;;;5036941;28;20447;-76
2022/08/12 14:48:03;;;;;;;1.10;0.70;;;30.70;37.00;;;;;;5037033;28;20533;-76
2022/08/12 14:50:31;;;;;;;0.70;0.60;;;31.20;35.60;;;;;;5036616;28;20447;-76
2022/08/12 14:52:58;;;;;;;0.70;0.50;;;31.50;35.60;;;;;;5036812;28;20455;-75
2022/08/12 14:55:32;;;;;;;0.80;0.60;;;31.80;34.80;;;;;;5036697;28;20475;-75
2022/08/12 14:58:00;;;;;;;0.70;0.60;;;32.00;34.20;;;;;;5036706;28;20524;-76
2022/08/12 15:03:13;;;;;;;0.70;0.60;;;31.50;35.10;;;;;;5036708;28;20963;-75
2022/08/12 15:05:42;;;;;;;0.70;0.60;;;31.50;34.50;;;;;;5036462;28;20447;-75
2022/08/12 15:08:12;;;;;;;0.70;0.60;;;31.50;34.30;;;;;;5036475;28;20439;-74
2022/08/12 15:10:40;;;;;;;0.87;0.60;;;31.50;35.30;;;;;;5036450;28;20451;-74
2022/08/12 15:13:08;;;;;;;0.83;0.63;;;31.60;34.10;;;;;;5036326;28;20443;-75
2022/08/12 15:15:38;;;;;;;0.70;0.50;;;31.20;34.30;;;;;;5036304;28;20513;-75
2022/08/12 15:18:05;;;;;;;0.70;0.60;;;30.50;34.80;;;;;;5060389;23;20990;-76
2022/08/12 15:20:33;;;;;;;0.70;0.50;;;30.40;34.60;;;;;;5036314;28;20523;-74
2022/08/12 15:23:01;;;;;;;0.70;0.50;;;30.00;34.90;;;;;;5036040;28;20443;-75
2022/08/12 15:25:28;;;;;;;0.90;0.60;;;29.70;35.60;;;;;;5035865;28;20443;-75
2022/08/12 15:27:58;;;;;;;1.40;0.60;;;29.70;36.00;;;;;;5035887;28;20466;-75
2022/08/12 15:30:26;;;;;;;0.73;0.60;;;29.60;35.70;;;;;;5036789;28;20801;-75
2022/08/12 15:32:54;;;;;;;0.70;0.50;;;29.50;36.30;;;;;;5035841;28;20443;-74
2022/08/12 15:35:21;;;;;;;2.30;0.60;;;29.20;36.40;;;;;;5035663;28;20490;-75
2022/08/12 15:37:59;;;;;;;0.70;0.50;;;28.40;37.50;;;;;;5035497;28;20471;-74
2022/08/12 15:40:28;;;;;;;0.63;0.50;;;28.00;38.30;;;;;;5035758;28;20471;-75
2022/08/12 15:42:55;;;;;;;0.80;0.60;;;27.90;38.30;;;;;;5034650;28;20505;-74
2022/08/12 15:45:22;;;;;;;0.70;0.60;;;27.90;38.10;;;;;;5035424;28;20439;-75
2022/08/12 15:47:51;;;;;;;0.70;0.50;;;27.90;38.30;;;;;;5035441;28;20471;-75
2022/08/12 15:50:19;;;;;;;0.70;0.50;;;28.00;38.20;;;;;;5035216;28;20993;-74
2022/08/12 15:52:45;;;;;;;0.70;0.50;;;28.10;37.80;;;;;;5035388;28;20478;-74
2022/08/12 15:55:13;;;;;;;0.77;0.60;;;28.40;37.70;;;;;;5035440;28;20566;-75
2022/08/12 15:57:49;;;;;;;2.20;1.33;;;28.60;37.70;;;;;;5035385;28;20553;-75
2022/08/12 16:00:16;;;;;;;0.70;0.60;;;28.70;37.70;;;;;;5035663;28;20438;-75
2022/08/12 16:02:43;;;;;;;0.70;0.60;;;28.90;38.00;;;;;;5035298;28;20858;-75
2022/08/12 16:05:10;;;;;;;0.70;0.50;;;29.00;36.90;;;;;;5034940;28;20992;-75
2022/08/12 16:07:37;;;;;;;0.70;0.53;;;29.00;36.60;;;;;;5034716;28;20468;-76
2022/08/12 16:10:05;;;;;;;0.80;0.70;;;29.10;36.60;;;;;;5034844;28;20451;-75
2022/08/12 16:12:33;;;;;;;0.80;0.50;;;29.20;37.00;;;;;;5034680;28;20954;-74
2022/08/12 16:15:01;;;;;;;1.13;0.60;;;29.10;36.70;;;;;;5034863;28;20609;-74
2022/08/12 16:17:28;;;;;;;0.70;0.50;;;29.10;36.70;;;;;;5034566;28;20475;-74
2022/08/12 16:19:55;;;;;;;0.67;0.50;;;29.00;36.70;;;;;;5034956;28;20487;-77
2022/08/12 16:22:22;;;;;;;1.30;0.53;;;28.90;37.40;;;;;;5034945;28;20463;-75
2022/08/12 16:24:49;;;;;;;0.70;0.50;;;29.00;36.90;;;;;;5034415;28;20964;-75
2022/08/12 16:27:16;;;;;;;0.70;0.60;;;29.00;37.00;;;;;;5034355;28;20966;-74
2022/08/12 16:29:43;;;;;;;0.70;0.60;;;28.90;37.40;;;;;;5034699;28;20459;-74
2022/08/12 16:32:11;;;;;;;0.70;0.53;;;29.00;37.30;;;;;;5034777;28;20455;-74
2022/08/12 16:34:38;;;;;;;0.60;0.50;;;28.90;36.90;;;;;;5034663;28;20541;-72
2022/08/12 16:37:06;;;;;;;0.70;0.50;;;28.90;36.60;;;;;;5034216;28;20503;-73
2022/08/12 16:39:34;;;;;;;0.90;0.60;;;28.70;36.80;;;;;;5034503;28;20451;-72
2022/08/12 16:42:00;;;;;;;0.70;0.50;;;28.60;37.00;;;;;;5034375;28;20447;-73
2022/08/12 16:44:28;;;;;;;0.70;0.50;;;28.50;37.10;;;;;;5034319;28;20440;-73